Main page
METAR-TAF:

METAR-TAF

Airports :

Helsinki Airport

Helsinki, Finland

latitude: 60-19N, longitude: 024-58E, elevation: 51 m

Current weather observation

The report was made 42 minutes ago, at 13:20 UTC
Wind 14 kt from the Southwest
Temperature 13°C
Humidity 88%
Pressure 1009 hPa
Visibility 10 km or more
Scattered clouds at a height of 1300 ft

METAR: EFHK 211320Z 22014KT 9999 SCT013 13/11 Q1009 NOSIG

Time: 17:02 (14:02 UTC)

Forecast

The report was made 2 hours and 35 minutes ago, at 11:27 UTC
Forecast valid from 21 at 12 UTC to 22 at 12 UTC
Wind 12 kt from the Southwest
Visibility 10 km or more
no clouds below 1500 m and no cumulonimbus

TAF: EFHK 211127Z 2112/2212 22012KT CAVOK

Weather observations and forecasts of more than 4000 airports (METAR and TAF reports).

The available stations are represented by yellow and red dots on the map.

Hover mouse over dot to see the name of the station.

Then click to see weather observations and forecasts.

To change the map : click on the green buttons with a black cross to zoom in, on the green button with a dash to zoom out, or on the green arrows for adjacent maps.


METAR-TAF: